createdAt,value
2022-09-23T00:02:24.149Z,98098.78
2022-09-23T00:06:29.871Z,98093.97
2022-09-23T00:10:33.486Z,98100.50
2022-09-23T00:14:38.490Z,98090.53
2022-09-23T00:18:42.757Z,98086.69
2022-09-23T00:22:47.668Z,98078.34
2022-09-23T00:26:51.641Z,98080.53
2022-09-23T00:30:54.759Z,98079.16
2022-09-23T00:34:58.295Z,98073.38
2022-09-23T00:39:04.563Z,98074.47
2022-09-23T00:43:08.175Z,98069.53
2022-09-23T00:47:16.035Z,98072.72
2022-09-23T00:51:25.174Z,98085.25
2022-09-23T00:55:33.547Z,98072.03
2022-09-23T00:59:38.018Z,98073.31
2022-09-23T01:03:43.148Z,98063.75
2022-09-23T01:07:46.919Z,98058.81
2022-09-23T01:12:01.300Z,98050.63
2022-09-23T01:16:11.223Z,98054.69
2022-09-23T01:20:44.886Z,98047.56
2022-09-23T01:25:09.036Z,98054.09
2022-09-23T01:29:50.486Z,98047.78
2022-09-23T01:34:02.223Z,98047.78
2022-09-23T01:38:18.608Z,98046.69
2022-09-23T01:42:32.795Z,98037.47
2022-09-23T01:46:42.926Z,98042.66
2022-09-23T01:50:59.218Z,98045.84
2022-09-23T01:55:08.803Z,98043.19
2022-09-23T01:59:16.812Z,98030.09
2022-09-23T02:03:27.522Z,98030.94
2022-09-23T02:07:40.729Z,98035.47
2022-09-23T02:11:48.203Z,98037.69
2022-09-23T02:15:54.779Z,98030.28
2022-09-23T02:20:03.885Z,98033.59
2022-09-23T02:24:13.059Z,98029.75
2022-09-23T02:28:24.775Z,98033.03
2022-09-23T02:32:33.434Z,98027.84
2022-09-23T02:36:46.696Z,98024.44
2022-09-23T02:40:58.777Z,98027.84
2022-09-23T02:45:02.489Z,98027.03
2022-09-23T02:49:11.538Z,98019.38
2022-09-23T02:53:16.278Z,98014.72
2022-09-23T02:57:21.713Z,98007.59
2022-09-23T03:01:39.772Z,98007.59
2022-09-23T03:05:48.822Z,98013.31
2022-09-23T03:09:58.032Z,98003.47
2022-09-23T03:14:18.144Z,98002.94
2022-09-23T03:18:28.853Z,98002.09
2022-09-23T03:22:36.373Z,97998.28
2022-09-23T03:26:43.952Z,97999.00
2022-09-23T03:30:51.254Z,97991.22
2022-09-23T03:34:59.414Z,97907.03
2022-09-23T03:39:07.365Z,97991.47
2022-09-23T03:43:12.371Z,97988.19
2022-09-23T03:47:18.671Z,97990.09
2022-09-23T03:51:24.450Z,97992.25
2022-09-23T03:55:27.461Z,97990.91
2022-09-23T03:59:31.901Z,97985.00
2022-09-23T04:03:36.429Z,97979.28
2022-09-23T04:07:40.302Z,97976.13
2022-09-23T04:11:43.423Z,97978.97
2022-09-23T04:15:47.047Z,97976.69
2022-09-23T04:19:51.467Z,97981.28
2022-09-23T04:23:54.910Z,97982.38
2022-09-23T04:27:58.153Z,97980.72
2022-09-23T04:32:01.654Z,97989.47
2022-09-23T04:36:06.300Z,97991.09
2022-09-23T04:40:11.158Z,97985.66
2022-09-23T04:44:16.616Z,97983.50
2022-09-23T04:48:20.489Z,97989.09
2022-09-23T04:52:24.891Z,97993.63
2022-09-23T04:56:33.190Z,97988.88
2022-09-23T05:00:36.524Z,97986.81
2022-09-23T05:04:41.287Z,97981.22
2022-09-23T05:08:50.190Z,97993.09
2022-09-23T05:12:57.002Z,97999.13
2022-09-23T05:17:00.483Z,97999.81
2022-09-23T05:21:04.487Z,97997.91
2022-09-23T05:25:09.750Z,98000.50
2022-09-23T05:29:13.394Z,98004.56
2022-09-23T05:33:16.363Z,98004.44
2022-09-23T05:37:19.799Z,98010.91
2022-09-23T05:41:25.360Z,98018.81
2022-09-23T05:45:28.989Z,98014.47
2022-09-23T05:49:55.319Z,98009.53
2022-09-23T05:53:58.860Z,98011.47
2022-09-23T05:58:03.804Z,98015.28
2022-09-23T06:02:06.816Z,98012.28
2022-09-23T06:06:15.018Z,98013.63
2022-09-23T06:10:18.139Z,98007.09
2022-09-23T06:14:23.009Z,98008.84
2022-09-23T06:18:26.135Z,98008.03
2022-09-23T06:22:29.843Z,98018.41
2022-09-23T06:26:35.414Z,98018.13
2022-09-23T06:30:40.886Z,98025.66
2022-09-23T06:34:51.736Z,98024.22
2022-09-23T06:38:56.016Z,98024.19
2022-09-23T06:43:00.100Z,98026.03
2022-09-23T06:47:04.905Z,98020.06
2022-09-23T06:51:08.951Z,98011.19
2022-09-23T06:55:12.025Z,98016.44
2022-09-23T06:59:17.683Z,98011.25
2022-09-23T07:03:22.856Z,98021.34
2022-09-23T07:07:27.218Z,98028.28
2022-09-23T07:11:30.304Z,98029.94
2022-09-23T07:15:34.352Z,98037.16
2022-09-23T07:19:39.374Z,98026.25
2022-09-23T07:23:42.853Z,98017.28
2022-09-23T07:27:48.931Z,98020.94
2022-09-23T07:31:53.336Z,98018.69
2022-09-23T07:35:59.367Z,98024.91
2022-09-23T07:40:02.841Z,98023.94
2022-09-23T07:44:06.962Z,98021.16
2022-09-23T07:48:09.985Z,98024.84
2022-09-23T07:52:14.342Z,98025.09
2022-09-23T07:56:19.673Z,98030.22
2022-09-23T08:00:23.116Z,98032.78
2022-09-23T08:04:28.404Z,98022.19
2022-09-23T08:08:33.542Z,98023.81
2022-09-23T08:12:36.680Z,98037.44
2022-09-23T08:16:39.966Z,98031.03
2022-09-23T08:20:47.420Z,98015.34
2022-09-23T08:24:55.189Z,98011.66
2022-09-23T08:28:59.651Z,98012.34
2022-09-23T08:33:03.100Z,98003.34
2022-09-23T08:37:10.863Z,97996.28
2022-09-23T08:41:28.847Z,97996.06
2022-09-23T08:45:32.220Z,97988.47
2022-09-23T08:49:41.417Z,97993.59
2022-09-23T08:53:45.672Z,97987.13
2022-09-23T08:58:24.441Z,97979.22
2022-09-23T09:02:29.655Z,97975.59
2022-09-23T09:06:52.489Z,97967.84
2022-09-23T09:10:58.806Z,97960.13
2022-09-23T09:15:08.522Z,97962.91
2022-09-23T09:19:19.110Z,97959.25
2022-09-23T09:23:25.158Z,97957.97
2022-09-23T09:27:28.713Z,97949.00
2022-09-23T09:31:39.524Z,97949.88
2022-09-23T09:36:09.497Z,97944.22
2022-09-23T09:40:14.218Z,97940.19
2022-09-23T09:44:27.359Z,97945.53
2022-09-23T09:48:39.421Z,97930.13
2022-09-23T09:52:43.580Z,97917.69
2022-09-23T10:00:55.580Z,97916.75
2022-09-23T10:05:03.472Z,97906.97
2022-09-23T10:09:19.767Z,97906.94
2022-09-23T10:13:24.808Z,97902.66
2022-09-23T10:17:34.155Z,97903.66
2022-09-23T10:21:39.940Z,97896.63
2022-09-23T10:25:44.408Z,97901.41
2022-09-23T10:29:51.905Z,97899.06
2022-09-23T10:33:57.928Z,97898.03
2022-09-23T10:38:02.768Z,97898.06
2022-09-23T10:42:45.141Z,97889.31
2022-09-23T10:46:57.812Z,97871.78
2022-09-23T10:51:01.037Z,97872.88
2022-09-23T10:55:15.999Z,97861.53
2022-09-23T10:59:45.075Z,97854.28
2022-09-23T11:04:12.309Z,97841.78
2022-09-23T11:08:31.728Z,97837.16
2022-09-23T11:12:47.863Z,97833.09
2022-09-23T11:17:15.216Z,97821.50
2022-09-23T11:21:40.351Z,97819.03
2022-09-23T11:25:52.587Z,97817.22
2022-09-23T11:30:05.728Z,97806.81
2022-09-23T11:34:26.630Z,97803.63
2022-09-23T11:38:36.683Z,97799.16
2022-09-23T11:42:47.460Z,97787.06
2022-09-23T11:46:58.005Z,97790.44
2022-09-23T11:51:07.041Z,97783.00
2022-09-23T11:55:22.802Z,97777.91
2022-09-23T11:59:40.548Z,97774.28
2022-09-23T12:03:53.871Z,97756.03
2022-09-23T12:08:04.439Z,97757.22
2022-09-23T12:12:15.244Z,97763.75
2022-09-23T12:16:40.153Z,97754.78
2022-09-23T12:20:56.945Z,97756.94
2022-09-23T12:25:10.980Z,97754.81
2022-09-23T12:29:16.084Z,97749.09
2022-09-23T12:33:25.210Z,97747.66
2022-09-23T12:37:36.288Z,97742.31
2022-09-23T12:41:42.515Z,97738.84
2022-09-23T12:45:46.489Z,97733.59
2022-09-23T12:49:50.965Z,97725.66
2022-09-23T12:53:58.974Z,97722.75
2022-09-23T12:58:02.377Z,97719.84
2022-09-23T13:02:28.319Z,97712.19
2022-09-23T13:06:41.457Z,97705.28
2022-09-23T13:10:50.319Z,97705.91
2022-09-23T13:14:56.465Z,97691.81
2022-09-23T13:19:00.877Z,97694.72
2022-09-23T13:23:29.659Z,97688.19
2022-09-23T13:27:35.301Z,97682.88
2022-09-23T13:31:39.521Z,97676.44
2022-09-23T13:35:47.641Z,97660.44
2022-09-23T13:39:51.672Z,97656.22
2022-09-23T13:43:58.785Z,97660.09
2022-09-23T13:48:06.199Z,97657.00
2022-09-23T13:52:25.545Z,97656.78
2022-09-23T13:56:30.629Z,97652.97
2022-09-23T14:00:39.418Z,97637.69
2022-09-23T14:04:43.018Z,97631.31
2022-09-23T14:08:48.330Z,97629.78
2022-09-23T14:12:53.914Z,97635.47
2022-09-23T14:17:00.615Z,97633.94
2022-09-23T14:21:04.398Z,97629.03
2022-09-23T14:25:15.614Z,97633.94
2022-09-23T14:29:21.185Z,97623.91
2022-09-23T14:33:28.561Z,97611.75
2022-09-23T14:37:52.996Z,97612.75
2022-09-23T14:41:57.189Z,97606.44
2022-09-23T14:46:01.219Z,97614.13
2022-09-23T14:50:24.386Z,97606.09
2022-09-23T14:54:38.346Z,97600.38
2022-09-23T14:58:54.197Z,97599.78
2022-09-23T15:03:02.829Z,97596.19
2022-09-23T15:07:17.386Z,97599.91
2022-09-23T15:11:22.657Z,97591.63
2022-09-23T15:15:30.097Z,97589.81
2022-09-23T15:19:35.912Z,97588.03
2022-09-23T15:23:47.100Z,97586.78
2022-09-23T15:28:06.287Z,97588.09
2022-09-23T15:32:09.375Z,97576.25
2022-09-23T15:40:32.830Z,97548.47
2022-09-23T15:44:36.472Z,97586.53
2022-09-23T15:48:44.187Z,97584.34
2022-09-23T15:52:47.210Z,97571.63
2022-09-23T15:56:52.281Z,97517.38
2022-09-23T16:00:58.129Z,97579.63
2022-09-23T16:05:03.506Z,97564.56
2022-09-23T16:09:07.084Z,97566.44
2022-09-23T16:13:15.803Z,97573.22
2022-09-23T16:17:19.430Z,97558.09
2022-09-23T16:21:25.770Z,97558.97
2022-09-23T16:25:32.526Z,97550.31
2022-09-23T16:29:37.972Z,97564.06
2022-09-23T16:33:41.031Z,97575.00
2022-09-23T16:37:47.713Z,97575.31
2022-09-23T16:41:50.734Z,97561.66
2022-09-23T16:45:55.867Z,97576.41
2022-09-23T16:49:58.923Z,97574.28
2022-09-23T16:54:02.560Z,97565.84
2022-09-23T16:58:06.028Z,97569.34
2022-09-23T17:02:30.563Z,97572.00
2022-09-23T17:06:34.219Z,97570.31
2022-09-23T17:10:37.736Z,97576.53
2022-09-23T17:14:40.764Z,97576.03
2022-09-23T17:18:45.173Z,97570.63
2022-09-23T17:22:48.421Z,97576.34
2022-09-23T17:26:53.228Z,97572.19
2022-09-23T17:30:59.594Z,97566.38
2022-09-23T17:35:04.830Z,97567.84
2022-09-23T17:39:08.507Z,97574.97
2022-09-23T17:43:11.600Z,97573.25
2022-09-23T17:47:15.052Z,97576.38
2022-09-23T17:51:20.980Z,97579.31
2022-09-23T17:55:23.992Z,97570.75
2022-09-23T17:59:27.984Z,97581.34
2022-09-23T18:03:32.597Z,97578.66
2022-09-23T18:07:37.777Z,97579.22
2022-09-23T18:11:43.147Z,97580.94
2022-09-23T18:15:46.189Z,97575.81
2022-09-23T18:19:49.837Z,97576.91
2022-09-23T18:23:59.789Z,97575.97
2022-09-23T18:28:09.710Z,97581.69
2022-09-23T18:32:14.315Z,97587.03
2022-09-23T18:36:18.006Z,97577.00
2022-09-23T18:40:22.545Z,97585.59
2022-09-23T18:44:26.938Z,97583.03
2022-09-23T18:48:49.691Z,97589.19
2022-09-23T18:52:53.229Z,97584.03
2022-09-23T18:56:59.772Z,97590.78
2022-09-23T19:01:08.323Z,97586.25
2022-09-23T19:05:11.544Z,97592.19
2022-09-23T19:09:16.431Z,97590.03
2022-09-23T19:13:22.057Z,97575.03
2022-09-23T19:17:25.573Z,97594.69
2022-09-23T19:21:29.887Z,97587.53
2022-09-23T19:25:32.927Z,97593.44
2022-09-23T19:29:38.484Z,97587.28
2022-09-23T19:33:46.206Z,97590.41
2022-09-23T19:37:52.643Z,97594.56
2022-09-23T19:41:57.243Z,97595.25
2022-09-23T19:46:02.327Z,97588.75
2022-09-23T19:50:07.359Z,97589.63
2022-09-23T19:54:11.067Z,97588.50
2022-09-23T19:58:14.602Z,97595.06
2022-09-23T20:02:21.103Z,97590.19
2022-09-23T20:06:25.071Z,97591.53
2022-09-23T20:10:28.927Z,97588.25
2022-09-23T20:14:32.114Z,97595.63
2022-09-23T20:18:37.729Z,97594.97
2022-09-23T20:22:41.437Z,97585.25
2022-09-23T20:27:06.979Z,97596.03
2022-09-23T20:31:10.595Z,97589.66
2022-09-23T20:35:16.883Z,97599.84
2022-09-23T20:39:20.478Z,97589.94
2022-09-23T20:43:24.592Z,97598.75
2022-09-23T20:47:28.019Z,97591.44
2022-09-23T20:51:34.236Z,97589.16
2022-09-23T20:55:37.789Z,97592.13
2022-09-23T20:59:41.528Z,97582.81
2022-09-23T21:03:46.436Z,97578.75
2022-09-23T21:07:51.033Z,97580.72
2022-09-23T21:11:54.234Z,97570.63
2022-09-23T21:15:58.904Z,97569.34
2022-09-23T21:20:02.113Z,97567.06
2022-09-23T21:24:39.740Z,97569.97
2022-09-23T21:28:33.931Z,97558.75
2022-09-23T21:32:37.623Z,97565.25
2022-09-23T21:40:59.258Z,97573.00
2022-09-23T21:45:07.297Z,97569.75
2022-09-23T21:49:10.769Z,97573.03
2022-09-23T21:53:14.790Z,97572.84
2022-09-23T21:57:19.262Z,97569.13
2022-09-23T22:01:24.927Z,97573.53
2022-09-23T22:05:28.477Z,97568.47
2022-09-23T22:09:31.739Z,97565.88
2022-09-23T22:13:36.646Z,97561.47
2022-09-23T22:17:40.059Z,97568.47
2022-09-23T22:21:46.224Z,97568.66
2022-09-23T22:25:49.655Z,97569.78
2022-09-23T22:30:11.969Z,97566.53
2022-09-23T22:34:37.647Z,97571.91
2022-09-23T22:38:39.131Z,97578.28
2022-09-23T22:42:42.917Z,97571.09
2022-09-23T22:46:48.338Z,97573.38
2022-09-23T22:50:51.576Z,97567.50
2022-09-23T22:54:55.047Z,97578.56
2022-09-23T22:59:01.374Z,97579.41
2022-09-23T23:03:07.337Z,97567.84
2022-09-23T23:07:10.929Z,97571.41
2022-09-23T23:11:14.447Z,97570.28
2022-09-23T23:15:17.654Z,97571.72
2022-09-23T23:19:22.810Z,97568.63
2022-09-23T23:23:26.217Z,97565.19
2022-09-23T23:27:29.154Z,97565.19
2022-09-23T23:31:33.922Z,97554.78
2022-09-23T23:35:38.531Z,97555.59
2022-09-23T23:39:41.528Z,97557.38
2022-09-23T23:43:46.804Z,97553.00
2022-09-23T23:47:50.216Z,97560.00
2022-09-23T23:51:54.537Z,97555.44
2022-09-23T23:55:58.759Z,97564.88
